createdAt,value
2019-02-19T00:00:12.399Z,1003.09
2019-02-19T00:01:12.387Z,1003.06
2019-02-19T00:02:12.417Z,1003.10
2019-02-19T00:03:12.366Z,1003.11
2019-02-19T00:04:12.349Z,1003.09
2019-02-19T00:05:12.341Z,1003.08
2019-02-19T00:06:12.326Z,1003.08
2019-02-19T00:07:12.315Z,1003.09
2019-02-19T00:08:12.321Z,1003.08
2019-02-19T00:09:12.289Z,1003.02
2019-02-19T00:10:12.279Z,1003.07
2019-02-19T00:11:12.267Z,1003.05
2019-02-19T00:12:12.258Z,1003.10
2019-02-19T00:13:12.284Z,1003.03
2019-02-19T00:14:12.231Z,1003.02
2019-02-19T00:15:12.220Z,1003.06
2019-02-19T00:16:12.243Z,1003.03
2019-02-19T00:17:12.203Z,1003.05
2019-02-19T00:18:12.203Z,1003.05
2019-02-19T00:19:12.194Z,1002.99
2019-02-19T00:20:12.163Z,1003.05
2019-02-19T00:21:12.153Z,1003.02
2019-02-19T00:22:12.142Z,1003.00
2019-02-19T00:23:12.153Z,1003.05
2019-02-19T00:24:12.119Z,1003.05
2019-02-19T00:25:12.140Z,1003.09
2019-02-19T00:26:12.092Z,1003.03
2019-02-19T00:27:12.081Z,1003.06
2019-02-19T00:28:12.069Z,1003.02
2019-02-19T00:29:12.833Z,1002.99
2019-02-19T00:30:12.046Z,1003.02
2019-02-19T00:31:12.035Z,1003.07
2019-02-19T00:32:12.032Z,1003.03
2019-02-19T00:33:12.012Z,1003.01
2019-02-19T00:34:12.058Z,1003.02
2019-02-19T00:35:11.988Z,1003.03
2019-02-19T00:36:11.976Z,1003.08
2019-02-19T00:37:11.967Z,1003.07
2019-02-19T00:38:11.954Z,1003.11
2019-02-19T00:39:11.968Z,1003.10
2019-02-19T00:40:11.929Z,1003.10
2019-02-19T00:41:11.919Z,1003.09
2019-02-19T00:42:11.911Z,1003.11
2019-02-19T00:43:11.896Z,1003.09
2019-02-19T00:44:11.904Z,1003.06
2019-02-19T00:45:16.652Z,1003.09
2019-02-19T00:46:11.860Z,1003.08
2019-02-19T00:47:11.849Z,1003.05
2019-02-19T00:48:11.836Z,1003.05
2019-02-19T00:49:11.824Z,1003.02
2019-02-19T00:50:11.831Z,1002.98
2019-02-19T00:51:11.802Z,1003.01
2019-02-19T00:52:11.790Z,1003.05
2019-02-19T00:53:11.776Z,1003.04
2019-02-19T00:54:11.785Z,1003.08
2019-02-19T00:55:11.795Z,1003.02
2019-02-19T00:56:11.743Z,1003.09
2019-02-19T00:57:11.731Z,1003.05
2019-02-19T00:58:11.720Z,1003.02
2019-02-19T00:59:11.709Z,1003.04
2019-02-19T01:00:11.699Z,1003.09
2019-02-19T01:01:11.708Z,1003.03
2019-02-19T01:02:11.707Z,1003.05
2019-02-19T01:03:11.662Z,1003.07
2019-02-19T01:04:11.653Z,1003.07
2019-02-19T01:05:11.641Z,1003.08
2019-02-19T01:06:11.647Z,1003.11
2019-02-19T01:07:11.619Z,1003.12
2019-02-19T01:08:11.605Z,1003.11
2019-02-19T01:09:11.595Z,1003.16
2019-02-19T01:10:11.583Z,1003.12
2019-02-19T01:11:11.594Z,1003.17
2019-02-19T01:12:11.560Z,1003.14
2019-02-19T01:13:11.549Z,1003.21
2019-02-19T01:14:11.536Z,1003.16
2019-02-19T01:15:11.525Z,1003.17
2019-02-19T01:16:11.518Z,1003.16
2019-02-19T01:17:11.523Z,1003.18
2019-02-19T01:18:11.492Z,1003.12
2019-02-19T01:19:11.479Z,1003.16
2019-02-19T01:20:11.467Z,1003.16
2019-02-19T01:21:11.542Z,1003.13
2019-02-19T01:22:11.462Z,1003.14
2019-02-19T01:23:11.433Z,1003.20
2019-02-19T01:24:11.422Z,1003.16
2019-02-19T01:25:11.411Z,1003.23
2019-02-19T01:26:11.399Z,1003.16
2019-02-19T01:27:11.406Z,1003.16
2019-02-19T01:28:11.376Z,1003.20
2019-02-19T01:29:11.367Z,1003.16
2019-02-19T01:30:11.351Z,1003.17
2019-02-19T01:31:11.340Z,1003.13
2019-02-19T01:32:11.348Z,1003.19
2019-02-19T01:33:11.318Z,1003.19
2019-02-19T01:34:11.306Z,1003.16
2019-02-19T01:35:11.295Z,1003.23
2019-02-19T01:36:11.282Z,1003.19
2019-02-19T01:37:11.293Z,1003.16
2019-02-19T01:38:11.262Z,1003.19
2019-02-19T01:39:11.255Z,1003.17
2019-02-19T01:40:11.234Z,1003.17
2019-02-19T01:41:11.225Z,1003.12
2019-02-19T01:42:11.241Z,1003.16
2019-02-19T01:43:11.203Z,1003.17
2019-02-19T01:44:11.188Z,1003.23
2019-02-19T01:45:11.176Z,1003.26
2019-02-19T01:46:11.166Z,1003.24
2019-02-19T01:47:11.172Z,1003.24
2019-02-19T01:48:11.141Z,1003.22
2019-02-19T01:49:11.129Z,1003.19
2019-02-19T01:50:11.117Z,1003.17
2019-02-19T01:51:11.107Z,1003.16
2019-02-19T01:52:11.113Z,1003.13
2019-02-19T01:53:11.083Z,1003.18
2019-02-19T01:54:11.072Z,1003.20
2019-02-19T01:55:11.057Z,1003.19
2019-02-19T01:56:11.045Z,1003.21
2019-02-19T01:57:11.079Z,1003.23
2019-02-19T01:58:11.023Z,1003.17
2019-02-19T01:59:11.011Z,1003.22
2019-02-19T02:00:10.997Z,1003.18
2019-02-19T02:01:10.985Z,1003.24
2019-02-19T02:02:10.974Z,1003.24
2019-02-19T02:03:10.983Z,1003.18
2019-02-19T02:04:10.952Z,1003.25
2019-02-19T02:05:10.941Z,1003.28
2019-02-19T02:06:10.931Z,1003.27
2019-02-19T02:07:10.915Z,1003.26
2019-02-19T02:08:10.921Z,1003.28
2019-02-19T02:09:10.897Z,1003.23
2019-02-19T02:10:10.879Z,1003.27
2019-02-19T02:11:10.868Z,1003.25
2019-02-19T02:12:10.856Z,1003.32
2019-02-19T02:13:10.887Z,1003.23
2019-02-19T02:14:10.833Z,1003.31
2019-02-19T02:15:10.819Z,1003.30
2019-02-19T02:16:10.809Z,1003.28
2019-02-19T02:17:10.796Z,1003.32
2019-02-19T02:18:10.785Z,1003.28
2019-02-19T02:19:10.792Z,1003.33
2019-02-19T02:20:10.763Z,1003.22
2019-02-19T02:21:10.753Z,1003.30
2019-02-19T02:22:10.738Z,1003.33
2019-02-19T02:23:10.725Z,1003.32
2019-02-19T02:24:10.734Z,1003.38
2019-02-19T02:25:10.703Z,1003.37
2019-02-19T02:26:10.690Z,1003.36
2019-02-19T02:27:10.680Z,1003.33
2019-02-19T02:28:10.667Z,1003.33
2019-02-19T02:29:10.674Z,1003.36
2019-02-19T02:30:10.645Z,1003.38
2019-02-19T02:31:10.632Z,1003.41
2019-02-19T02:32:10.625Z,1003.37
2019-02-19T02:33:10.615Z,1003.39
2019-02-19T02:34:10.619Z,1003.40
2019-02-19T02:35:11.406Z,1003.36
2019-02-19T02:36:10.576Z,1003.39
2019-02-19T02:37:10.560Z,1003.33
2019-02-19T02:38:10.554Z,1003.37
2019-02-19T02:39:10.537Z,1003.40
2019-02-19T02:40:10.557Z,1003.37
2019-02-19T02:41:10.515Z,1003.35
2019-02-19T02:42:17.544Z,1003.29
2019-02-19T02:43:10.492Z,1003.30
2019-02-19T02:44:10.478Z,1003.34
2019-02-19T02:45:10.487Z,1003.31
2019-02-19T02:46:10.479Z,1003.33
2019-02-19T02:47:10.448Z,1003.30
2019-02-19T02:48:10.438Z,1003.29
2019-02-19T02:49:10.425Z,1003.28
2019-02-19T02:50:10.427Z,1003.28
2019-02-19T02:51:10.399Z,1003.31
2019-02-19T02:52:10.401Z,1003.32
2019-02-19T02:53:10.375Z,1003.36
2019-02-19T02:54:10.365Z,1003.29
2019-02-19T02:55:10.376Z,1003.26
2019-02-19T02:56:10.343Z,1003.25
2019-02-19T02:57:10.329Z,1003.32
2019-02-19T02:58:10.324Z,1003.34
2019-02-19T02:59:10.309Z,1003.30
2019-02-19T03:00:10.320Z,1003.39
2019-02-19T03:01:10.284Z,1003.37
2019-02-19T03:02:10.281Z,1003.33
2019-02-19T03:03:10.264Z,1003.42
2019-02-19T03:04:10.251Z,1003.35
2019-02-19T03:05:10.259Z,1003.34
2019-02-19T03:06:10.230Z,1003.33
2019-02-19T03:07:10.216Z,1003.28
2019-02-19T03:08:10.203Z,1003.38
2019-02-19T03:09:10.192Z,1003.35
2019-02-19T03:10:10.202Z,1003.40
2019-02-19T03:11:10.173Z,1003.41
2019-02-19T03:12:10.159Z,1003.37
2019-02-19T03:13:10.146Z,1003.41
2019-02-19T03:14:10.136Z,1003.43
2019-02-19T03:15:10.163Z,1003.40
2019-02-19T03:16:10.112Z,1003.35
2019-02-19T03:17:10.101Z,1003.41
2019-02-19T03:18:10.098Z,1003.35
2019-02-19T03:19:10.080Z,1003.36
2019-02-19T03:20:10.064Z,1003.29
2019-02-19T03:21:10.073Z,1003.37
2019-02-19T03:22:10.043Z,1003.37
2019-02-19T03:23:10.036Z,1003.42
2019-02-19T03:24:10.021Z,1003.41
2019-02-19T03:25:10.049Z,1003.39
2019-02-19T03:26:10.005Z,1003.45
2019-02-19T03:27:09.997Z,1003.47
2019-02-19T03:28:09.985Z,1003.45
2019-02-19T03:29:09.960Z,1003.47
2019-02-19T03:30:09.953Z,1003.48
2019-02-19T03:31:09.988Z,1003.47
2019-02-19T03:32:09.925Z,1003.50
2019-02-19T03:33:09.972Z,1003.52
2019-02-19T03:34:09.919Z,1003.55
2019-02-19T03:35:09.894Z,1003.55
2019-02-19T03:36:09.879Z,1003.52
2019-02-19T03:37:09.884Z,1003.57
2019-02-19T03:38:09.900Z,1003.52
2019-02-19T03:39:09.841Z,1003.58
2019-02-19T03:40:09.866Z,1003.58
2019-02-19T03:41:09.818Z,1003.56
2019-02-19T03:42:09.826Z,1003.54
2019-02-19T03:43:09.794Z,1003.52
2019-02-19T03:44:09.782Z,1003.54
2019-02-19T03:45:09.783Z,1003.59
2019-02-19T03:46:12.400Z,1003.55
2019-02-19T03:47:09.767Z,1003.58
2019-02-19T03:48:09.736Z,1003.61
2019-02-19T03:49:09.723Z,1003.60
2019-02-19T03:50:09.710Z,1003.64
2019-02-19T03:51:09.699Z,1003.59
2019-02-19T03:52:09.709Z,1003.65
2019-02-19T03:53:09.695Z,1003.54
2019-02-19T03:54:09.664Z,1003.57
2019-02-19T03:55:09.656Z,1003.61
2019-02-19T03:56:09.640Z,1003.59
2019-02-19T03:57:09.652Z,1003.65
2019-02-19T03:58:09.618Z,1003.60
2019-02-19T03:59:09.605Z,1003.61
2019-02-19T04:00:09.592Z,1003.65
2019-02-19T04:01:09.583Z,1003.73
2019-02-19T04:02:09.569Z,1003.68
2019-02-19T04:03:09.577Z,1003.79
2019-02-19T04:04:09.551Z,1003.74
2019-02-19T04:05:09.536Z,1003.79
2019-02-19T04:06:09.523Z,1003.80
2019-02-19T04:07:09.530Z,1003.82
2019-02-19T04:08:09.522Z,1003.88
2019-02-19T04:09:09.488Z,1003.86
2019-02-19T04:10:09.476Z,1003.83
2019-02-19T04:11:09.461Z,1003.90
2019-02-19T04:12:09.468Z,1003.85
2019-02-19T04:13:09.438Z,1003.89
2019-02-19T04:14:09.428Z,1003.95
2019-02-19T04:15:09.414Z,1003.93
2019-02-19T04:16:09.404Z,1003.93
2019-02-19T04:17:09.415Z,1003.91
2019-02-19T04:18:09.381Z,1003.92
2019-02-19T04:19:09.367Z,1003.96
2019-02-19T04:20:09.354Z,1003.94
2019-02-19T04:21:09.344Z,1004.02
2019-02-19T04:22:09.360Z,1003.98
2019-02-19T04:23:09.330Z,1003.98
2019-02-19T04:24:09.308Z,1004.01
2019-02-19T04:25:09.295Z,1003.91
2019-02-19T04:26:09.285Z,1003.97
2019-02-19T04:27:09.274Z,1003.98
2019-02-19T04:28:09.279Z,1003.94
2019-02-19T04:29:09.249Z,1003.97
2019-02-19T04:30:09.237Z,1003.94
2019-02-19T04:31:09.226Z,1003.92
2019-02-19T04:32:09.232Z,1003.87
2019-02-19T04:33:09.208Z,1003.88
2019-02-19T04:34:09.188Z,1003.89
2019-02-19T04:35:09.196Z,1003.85
2019-02-19T04:36:09.170Z,1003.85
2019-02-19T04:37:09.198Z,1003.90
2019-02-19T04:38:09.142Z,1003.86
2019-02-19T04:39:09.132Z,1003.86
2019-02-19T04:40:09.126Z,1003.89
2019-02-19T04:41:09.108Z,1003.93
2019-02-19T04:42:09.095Z,1003.96
2019-02-19T04:43:09.104Z,1003.88
2019-02-19T04:44:09.082Z,1003.83
2019-02-19T04:45:09.066Z,1003.90
2019-02-19T04:46:09.047Z,1003.93
2019-02-19T04:47:09.034Z,1003.88
2019-02-19T04:48:09.041Z,1003.88
2019-02-19T04:49:09.012Z,1003.87
2019-02-19T04:50:08.998Z,1003.91
2019-02-19T04:51:08.986Z,1003.94
2019-02-19T04:52:09.006Z,1003.93
2019-02-19T04:53:08.981Z,1003.91
2019-02-19T04:54:08.950Z,1003.99
2019-02-19T04:55:08.943Z,1004.00
2019-02-19T04:56:08.929Z,1004.02
2019-02-19T04:57:08.916Z,1003.99
2019-02-19T04:58:08.922Z,1004.01
2019-02-19T04:59:08.916Z,1004.06
2019-02-19T05:00:08.881Z,1003.99
2019-02-19T05:01:08.877Z,1004.04
2019-02-19T05:02:08.858Z,1004.05
2019-02-19T05:03:08.868Z,1004.01
2019-02-19T05:04:08.835Z,1004.04
2019-02-19T05:05:08.864Z,1004.08
2019-02-19T05:06:08.817Z,1004.14
2019-02-19T05:07:08.823Z,1004.12
2019-02-19T05:08:08.811Z,1004.15
2019-02-19T05:09:08.776Z,1004.15
2019-02-19T05:10:08.763Z,1004.13
2019-02-19T05:11:08.754Z,1004.15
2019-02-19T05:12:08.744Z,1004.08
2019-02-19T05:13:08.732Z,1004.14
2019-02-19T05:14:08.762Z,1004.12
2019-02-19T05:15:08.706Z,1004.15
2019-02-19T05:16:08.696Z,1004.18
2019-02-19T05:17:08.700Z,1004.13
2019-02-19T05:18:08.670Z,1004.13
2019-02-19T05:19:08.728Z,1004.12
2019-02-19T05:20:08.652Z,1004.18
2019-02-19T05:21:08.637Z,1004.17
2019-02-19T05:22:08.623Z,1004.07
2019-02-19T05:23:08.611Z,1004.13
2019-02-19T05:24:08.600Z,1004.11
2019-02-19T05:25:08.607Z,1004.15
2019-02-19T05:26:08.576Z,1004.15
2019-02-19T05:27:08.564Z,1004.20
2019-02-19T05:28:08.552Z,1004.13
2019-02-19T05:29:08.541Z,1004.15
2019-02-19T05:30:08.548Z,1004.13
2019-02-19T05:31:08.518Z,1004.17
2019-02-19T05:32:08.520Z,1004.17
2019-02-19T05:33:08.496Z,1004.22
2019-02-19T05:34:08.480Z,1004.21
2019-02-19T05:35:08.490Z,1004.19
2019-02-19T05:36:09.152Z,1004.21
2019-02-19T05:37:08.447Z,1004.25
2019-02-19T05:38:08.433Z,1004.22
2019-02-19T05:39:08.428Z,1004.15
2019-02-19T05:40:08.464Z,1004.10
2019-02-19T05:41:08.406Z,1004.15
2019-02-19T05:42:08.388Z,1004.17
2019-02-19T05:43:08.379Z,1004.21
2019-02-19T05:44:08.375Z,1004.27
2019-02-19T05:45:08.389Z,1004.25
2019-02-19T05:46:08.343Z,1004.18
2019-02-19T05:47:08.331Z,1004.05
2019-02-19T05:48:08.321Z,1004.06
2019-02-19T05:49:08.312Z,1004.15
2019-02-19T05:50:08.318Z,1004.15
2019-02-19T05:51:08.293Z,1004.19
2019-02-19T05:52:08.271Z,1004.15
2019-02-19T05:53:08.267Z,1004.14
2019-02-19T05:54:08.253Z,1004.16
2019-02-19T05:55:08.281Z,1004.10
2019-02-19T05:56:08.227Z,1004.18
2019-02-19T05:57:08.218Z,1004.13
2019-02-19T05:58:08.206Z,1004.06
2019-02-19T05:59:08.201Z,1004.15
2019-02-19T06:00:08.181Z,1004.13
2019-02-19T06:01:08.189Z,1004.21
2019-02-19T06:02:08.173Z,1004.17
2019-02-19T06:03:08.148Z,1004.16
2019-02-19T06:04:08.151Z,1004.20
2019-02-19T06:05:08.127Z,1004.18
2019-02-19T06:06:08.133Z,1004.18
2019-02-19T06:07:08.102Z,1004.25
2019-02-19T06:08:08.092Z,1004.24
2019-02-19T06:09:08.088Z,1004.20
2019-02-19T06:10:08.072Z,1004.24
2019-02-19T06:11:08.084Z,1004.22
2019-02-19T06:12:08.048Z,1004.27
2019-02-19T06:13:08.038Z,1004.27
2019-02-19T06:14:08.024Z,1004.23
2019-02-19T06:15:08.012Z,1004.33
2019-02-19T06:16:08.003Z,1004.31
2019-02-19T06:17:08.021Z,1004.35
2019-02-19T06:18:07.977Z,1004.37
2019-02-19T06:19:07.966Z,1004.39
2019-02-19T06:20:07.954Z,1004.37
2019-02-19T06:21:07.945Z,1004.37
2019-02-19T06:22:07.957Z,1004.37
2019-02-19T06:23:07.917Z,1004.29
2019-02-19T06:24:07.909Z,1004.33
2019-02-19T06:25:07.898Z,1004.33
2019-02-19T06:26:07.885Z,1004.38
2019-02-19T06:27:07.874Z,1004.36
2019-02-19T06:28:07.877Z,1004.36
2019-02-19T06:29:07.884Z,1004.33
2019-02-19T06:30:07.839Z,1004.33
2019-02-19T06:31:07.825Z,1004.38
2019-02-19T06:32:07.814Z,1004.38
2019-02-19T06:33:07.822Z,1004.45
2019-02-19T06:34:07.789Z,1004.51
2019-02-19T06:35:07.782Z,1004.48
2019-02-19T06:36:07.768Z,1004.48
2019-02-19T06:37:07.755Z,1004.48
2019-02-19T06:38:07.761Z,1004.41
2019-02-19T06:39:07.738Z,1004.48
2019-02-19T06:40:07.717Z,1004.52
2019-02-19T06:41:07.714Z,1004.53
2019-02-19T06:42:07.696Z,1004.49
2019-02-19T06:43:07.708Z,1004.47
2019-02-19T06:44:07.673Z,1004.45
2019-02-19T06:45:07.661Z,1004.51
2019-02-19T06:46:07.647Z,1004.58
2019-02-19T06:47:07.658Z,1004.57
2019-02-19T06:48:07.646Z,1004.66
2019-02-19T06:49:07.616Z,1004.75
2019-02-19T06:50:07.602Z,1004.78
2019-02-19T06:51:07.593Z,1004.82
2019-02-19T06:52:07.579Z,1004.81
2019-02-19T06:53:07.643Z,1004.86
2019-02-19T06:54:07.558Z,1004.87
2019-02-19T06:55:07.556Z,1004.91
2019-02-19T06:56:07.535Z,1004.90
2019-02-19T06:57:07.524Z,1004.97
2019-02-19T06:58:07.538Z,1004.92
2019-02-19T06:59:07.502Z,1004.94
2019-02-19T07:00:07.490Z,1004.91
2019-02-19T07:01:07.481Z,1004.93
2019-02-19T07:02:07.465Z,1004.92
2019-02-19T07:03:07.482Z,1004.94
2019-02-19T07:04:07.443Z,1004.95
2019-02-19T07:05:07.432Z,1004.99
2019-02-19T07:06:07.419Z,1005.05
2019-02-19T07:07:07.412Z,1005.02
2019-02-19T07:08:07.417Z,1005.02
2019-02-19T07:09:07.386Z,1005.04
2019-02-19T07:10:07.374Z,1005.11
2019-02-19T07:11:07.406Z,1005.07
2019-02-19T07:12:07.355Z,1005.06
2019-02-19T07:13:07.359Z,1005.08
2019-02-19T07:14:07.328Z,1005.10
2019-02-19T07:15:07.323Z,1005.13
2019-02-19T07:16:07.306Z,1005.17
2019-02-19T07:17:15.297Z,1005.14
2019-02-19T07:18:08.349Z,1005.25
2019-02-19T07:19:07.272Z,1005.21
2019-02-19T07:20:07.264Z,1005.22
2019-02-19T07:21:07.262Z,1005.25
2019-02-19T07:22:07.237Z,1005.26
2019-02-19T07:23:07.246Z,1005.25
2019-02-19T07:24:07.214Z,1005.29
2019-02-19T07:25:07.204Z,1005.29
2019-02-19T07:26:07.195Z,1005.27
2019-02-19T07:27:07.183Z,1005.36
2019-02-19T07:28:07.193Z,1005.34
2019-02-19T07:29:07.156Z,1005.32
2019-02-19T07:30:07.145Z,1005.36
2019-02-19T07:31:07.154Z,1005.33
2019-02-19T07:32:07.124Z,1005.34
2019-02-19T07:33:07.137Z,1005.32
2019-02-19T07:34:07.117Z,1005.30
2019-02-19T07:35:07.126Z,1005.34
2019-02-19T07:36:07.074Z,1005.41
2019-02-19T07:37:07.068Z,1005.43
2019-02-19T07:38:07.052Z,1005.44
2019-02-19T07:39:07.059Z,1005.41
2019-02-19T07:40:07.037Z,1005.39
2019-02-19T07:41:07.023Z,1005.45
2019-02-19T07:42:07.007Z,1005.46
2019-02-19T07:43:06.998Z,1005.48
2019-02-19T07:44:07.004Z,1005.49
2019-02-19T07:45:06.971Z,1005.53
2019-02-19T07:46:06.959Z,1005.50
2019-02-19T07:47:06.947Z,1005.51
2019-02-19T07:48:06.940Z,1005.57
2019-02-19T07:49:06.923Z,1005.62
2019-02-19T07:50:06.931Z,1005.62
2019-02-19T07:51:06.899Z,1005.63
2019-02-19T07:52:06.889Z,1005.63
2019-02-19T07:53:06.876Z,1005.61
2019-02-19T07:54:06.867Z,1005.61
2019-02-19T07:55:06.878Z,1005.66
2019-02-19T07:56:06.844Z,1005.61
2019-02-19T07:57:06.827Z,1005.67
2019-02-19T07:58:06.818Z,1005.67
2019-02-19T07:59:06.804Z,1005.69
2019-02-19T08:00:06.793Z,1005.74
2019-02-19T08:01:06.800Z,1005.67
2019-02-19T08:02:06.775Z,1005.73
2019-02-19T08:03:06.760Z,1005.73
2019-02-19T08:04:06.749Z,1005.74
2019-02-19T08:05:06.735Z,1005.75
2019-02-19T08:06:06.742Z,1005.77
2019-02-19T08:07:06.711Z,1005.84
2019-02-19T08:08:06.700Z,1005.83
2019-02-19T08:09:06.687Z,1005.79
2019-02-19T08:10:06.676Z,1005.86
2019-02-19T08:11:06.682Z,1005.81
2019-02-19T08:12:06.652Z,1005.82
2019-02-19T08:13:06.641Z,1005.82
2019-02-19T08:14:06.628Z,1005.81
2019-02-19T08:15:06.628Z,1005.85
2019-02-19T08:16:06.625Z,1005.87
2019-02-19T08:17:06.594Z,1005.89
2019-02-19T08:18:06.589Z,1005.91
2019-02-19T08:19:06.571Z,1005.96
2019-02-19T08:20:13.437Z,1005.95
2019-02-19T08:21:07.564Z,1005.95
2019-02-19T08:22:06.535Z,1005.84
2019-02-19T08:23:06.525Z,1005.94
2019-02-19T08:24:06.514Z,1005.96
2019-02-19T08:25:06.500Z,1005.98
2019-02-19T08:26:06.510Z,1006.05
2019-02-19T08:27:06.480Z,1006.03
2019-02-19T08:28:06.467Z,1006.00
2019-02-19T08:29:13.440Z,1006.01
2019-02-19T08:30:07.442Z,1006.03
2019-02-19T08:31:06.454Z,1006.05
2019-02-19T08:32:06.419Z,1005.99
2019-02-19T08:33:06.409Z,1006.05
2019-02-19T08:34:06.396Z,1006.08
2019-02-19T08:35:06.387Z,1006.02
2019-02-19T08:36:06.374Z,1006.03
2019-02-19T08:37:06.383Z,1006.07
2019-02-19T08:38:06.438Z,1006.03
2019-02-19T08:39:06.338Z,1006.05
2019-02-19T08:40:06.326Z,1006.05
2019-02-19T08:41:06.315Z,1006.17
2019-02-19T08:42:06.323Z,1006.06
2019-02-19T08:43:06.290Z,1006.08
2019-02-19T08:44:06.284Z,1006.09
2019-02-19T08:45:06.268Z,1006.03
2019-02-19T08:46:06.254Z,1006.13
2019-02-19T08:47:06.245Z,1006.11
2019-02-19T08:48:06.248Z,1006.08
2019-02-19T08:49:06.219Z,1006.08
2019-02-19T08:50:06.207Z,1006.23
2019-02-19T08:51:06.199Z,1006.26
2019-02-19T08:52:06.186Z,1006.12
2019-02-19T08:53:06.190Z,1006.41
2019-02-19T08:54:06.160Z,1006.32
2019-02-19T08:55:06.152Z,1006.35
2019-02-19T08:56:06.138Z,1006.38
2019-02-19T08:57:06.126Z,1006.34
2019-02-19T08:58:06.142Z,1006.20
2019-02-19T08:59:06.106Z,1006.42
2019-02-19T09:00:06.091Z,1006.39
2019-02-19T09:01:06.082Z,1006.41
2019-02-19T09:02:06.070Z,1006.32
2019-02-19T09:03:06.057Z,1006.47
2019-02-19T09:04:06.065Z,1006.41
2019-02-19T09:05:06.039Z,1006.40
2019-02-19T09:06:06.021Z,1006.49
2019-02-19T09:07:06.011Z,1006.47
2019-02-19T09:08:06.022Z,1006.40
2019-02-19T09:09:05.988Z,1006.45
2019-02-19T09:10:05.976Z,1006.27
2019-02-19T09:11:05.965Z,1006.47
2019-02-19T09:12:05.957Z,1006.46
2019-02-19T09:13:05.942Z,1006.26
2019-02-19T09:14:05.949Z,1006.25
2019-02-19T09:15:05.918Z,1006.24
2019-02-19T09:16:05.907Z,1006.26
2019-02-19T09:17:05.898Z,1006.33
2019-02-19T09:18:05.913Z,1006.55
2019-02-19T09:19:05.873Z,1006.26
2019-02-19T09:20:05.862Z,1006.26
2019-02-19T09:21:05.851Z,1006.47
2019-02-19T09:22:05.839Z,1006.50
2019-02-19T09:23:05.829Z,1006.17
2019-02-19T09:24:09.422Z,1006.46
2019-02-19T09:25:05.804Z,1006.46
2019-02-19T09:26:05.793Z,1006.25
2019-02-19T09:27:05.784Z,1006.16
2019-02-19T09:28:05.770Z,1006.48
2019-02-19T09:29:05.782Z,1006.50
2019-02-19T09:30:05.753Z,1006.57
2019-02-19T09:31:05.741Z,1006.52
2019-02-19T09:32:05.727Z,1006.31
2019-02-19T09:33:05.713Z,1006.58
2019-02-19T09:34:05.721Z,1006.57
2019-02-19T09:35:05.691Z,1006.53
2019-02-19T09:36:05.679Z,1006.55
2019-02-19T09:37:05.667Z,1006.53
2019-02-19T09:38:05.654Z,1006.47
2019-02-19T09:39:05.667Z,1006.50
2019-02-19T09:40:05.632Z,1006.61
2019-02-19T09:41:05.621Z,1006.54
2019-02-19T09:42:05.613Z,1006.55
2019-02-19T09:43:05.598Z,1006.35
2019-02-19T09:44:05.609Z,1006.56
2019-02-19T09:45:05.574Z,1006.64
2019-02-19T09:46:05.566Z,1006.30
2019-02-19T09:47:05.552Z,1006.25
2019-02-19T09:48:05.542Z,1006.56
2019-02-19T09:49:05.549Z,1006.19
2019-02-19T09:50:05.521Z,1006.50
2019-02-19T09:51:05.506Z,1006.26
2019-02-19T09:52:05.501Z,1006.15
2019-02-19T09:53:05.485Z,1006.16
2019-02-19T09:54:05.967Z,1006.50
2019-02-19T09:55:05.462Z,1006.57
2019-02-19T09:56:05.450Z,1006.20
2019-02-19T09:57:05.438Z,1006.47
2019-02-19T09:58:05.428Z,1006.47
2019-02-19T09:59:05.415Z,1006.18
2019-02-19T10:00:05.422Z,1006.20
2019-02-19T10:01:05.397Z,1006.36
2019-02-19T10:02:05.387Z,1006.53
2019-02-19T10:03:05.371Z,1006.36
2019-02-19T10:04:05.359Z,1006.21
2019-02-19T10:05:05.367Z,1006.30
2019-02-19T10:06:05.336Z,1006.59
2019-02-19T10:07:05.322Z,1006.67
2019-02-19T10:08:05.311Z,1006.45
2019-02-19T10:09:05.300Z,1006.30
2019-02-19T10:10:05.329Z,1006.30
2019-02-19T10:11:05.276Z,1006.55
2019-02-19T10:12:05.266Z,1006.61
2019-02-19T10:13:05.252Z,1006.73
2019-02-19T10:14:05.242Z,1006.31
2019-02-19T10:15:05.230Z,1006.39
2019-02-19T10:16:05.238Z,1006.30
2019-02-19T10:17:05.208Z,1006.32
2019-02-19T10:18:10.284Z,1006.67
2019-02-19T10:19:06.184Z,1006.36
2019-02-19T10:20:05.171Z,1006.33
2019-02-19T10:21:05.179Z,1006.38
2019-02-19T10:22:05.153Z,1006.34
2019-02-19T10:23:05.137Z,1006.70
2019-02-19T10:24:05.132Z,1006.74
2019-02-19T10:25:05.114Z,1006.45
2019-02-19T10:26:05.126Z,1006.69
2019-02-19T10:27:05.095Z,1006.73
2019-02-19T10:28:05.107Z,1006.73
2019-02-19T10:29:05.067Z,1006.33
2019-02-19T10:30:05.056Z,1006.38
2019-02-19T10:31:05.045Z,1006.51
2019-02-19T10:32:06.006Z,1006.70
2019-02-19T10:33:05.023Z,1006.71
2019-02-19T10:34:05.014Z,1006.65
2019-02-19T10:35:04.997Z,1006.70
2019-02-19T10:36:05.977Z,1006.74
2019-02-19T10:37:04.976Z,1006.42
2019-02-19T10:38:05.129Z,1006.39
2019-02-19T10:39:04.952Z,1006.75
2019-02-19T10:40:04.967Z,1006.81
2019-02-19T10:41:04.928Z,1006.78
2019-02-19T10:42:04.937Z,1006.77
2019-02-19T10:43:04.907Z,1006.44
2019-02-19T10:44:04.894Z,1006.42
2019-02-19T10:45:04.883Z,1006.45
2019-02-19T10:46:04.874Z,1006.78
2019-02-19T10:47:04.878Z,1006.78
2019-02-19T10:48:04.853Z,1006.84
2019-02-19T10:49:04.842Z,1006.44
2019-02-19T10:50:04.825Z,1006.56
2019-02-19T10:51:04.816Z,1006.52
2019-02-19T10:52:04.823Z,1006.73
2019-02-19T10:53:04.794Z,1006.64
2019-02-19T10:54:04.783Z,1006.58
2019-02-19T10:55:04.772Z,1006.60
2019-02-19T10:56:04.762Z,1006.53
2019-02-19T10:57:04.771Z,1006.56
2019-02-19T10:58:04.736Z,1006.59
2019-02-19T10:59:04.728Z,1006.78
2019-02-19T11:00:04.718Z,1006.54
2019-02-19T11:01:04.701Z,1006.46
2019-02-19T11:02:04.711Z,1006.76
2019-02-19T11:03:04.679Z,1006.53
2019-02-19T11:04:04.667Z,1006.47
2019-02-19T11:05:04.655Z,1006.74
2019-02-19T11:06:04.642Z,1006.58
2019-02-19T11:07:04.653Z,1006.44
2019-02-19T11:08:04.621Z,1006.80
2019-02-19T11:09:04.613Z,1006.54
2019-02-19T11:10:04.599Z,1006.44
2019-02-19T11:11:04.585Z,1006.74
2019-02-19T11:12:04.596Z,1006.74
2019-02-19T11:13:04.562Z,1006.47
2019-02-19T11:14:04.552Z,1006.45
2019-02-19T11:15:04.542Z,1006.47
2019-02-19T11:16:04.526Z,1006.44
2019-02-19T11:17:04.518Z,1006.73
2019-02-19T11:18:04.525Z,1006.68
2019-02-19T11:19:04.494Z,1006.59
2019-02-19T11:20:04.480Z,1006.42
2019-02-19T11:21:04.468Z,1006.51
2019-02-19T11:22:04.457Z,1006.73
2019-02-19T11:23:04.471Z,1006.47
2019-02-19T11:24:04.433Z,1006.55
2019-02-19T11:25:04.421Z,1006.50
2019-02-19T11:26:04.435Z,1006.53
2019-02-19T11:27:04.404Z,1006.52
2019-02-19T11:28:04.388Z,1006.56
2019-02-19T11:29:04.400Z,1006.48
2019-02-19T11:30:04.368Z,1006.52
2019-02-19T11:31:04.356Z,1006.57
2019-02-19T11:32:04.342Z,1006.52
2019-02-19T11:33:04.331Z,1006.80
2019-02-19T11:34:04.337Z,1006.55
2019-02-19T11:35:04.329Z,1006.50
2019-02-19T11:36:04.295Z,1006.54
2019-02-19T11:37:04.287Z,1006.53
2019-02-19T11:38:04.277Z,1006.51
2019-02-19T11:39:04.281Z,1006.41
2019-02-19T11:40:05.851Z,1006.77
2019-02-19T11:41:04.237Z,1006.81
2019-02-19T11:42:04.860Z,1006.55
2019-02-19T11:43:04.218Z,1006.66
2019-02-19T11:44:04.224Z,1006.53
2019-02-19T11:45:04.244Z,1006.51
2019-02-19T11:46:04.182Z,1006.51
2019-02-19T11:49:54.718Z,1006.60
2019-02-19T11:50:27.790Z,1006.54
2019-02-19T11:51:27.780Z,1006.63
2019-02-19T11:52:27.775Z,1006.51
2019-02-19T12:05:41.051Z,1006.41
2019-02-19T12:06:16.299Z,1006.44
2019-02-19T12:07:16.282Z,1006.36
2019-02-19T12:08:23.428Z,1006.57
2019-02-19T12:09:16.263Z,1006.46
2019-02-19T12:10:16.273Z,1006.49
2019-02-19T12:11:16.238Z,1006.48
2019-02-19T12:14:35.968Z,1006.51
2019-02-19T12:15:35.975Z,1006.43
2019-02-19T12:16:35.944Z,1006.44
2019-02-19T12:17:35.929Z,1006.50
2019-02-19T12:18:35.920Z,1006.45
2019-02-19T12:19:35.930Z,1006.48
2019-02-19T12:20:35.895Z,1006.54
2019-02-19T12:21:35.882Z,1006.52